createdAt,value
2023-03-19T00:04:46.601Z,11.92
2023-03-19T00:09:48.432Z,12.04
2023-03-19T00:14:50.483Z,12.06
2023-03-19T00:19:53.575Z,11.99
2023-03-19T00:24:55.250Z,11.95
2023-03-19T00:29:56.952Z,11.95
2023-03-19T00:35:00.235Z,11.91
2023-03-19T00:40:02.008Z,11.91
2023-03-19T00:45:04.665Z,11.81
2023-03-19T00:50:11.932Z,11.81
2023-03-19T00:55:13.774Z,11.83
2023-03-19T01:05:19.516Z,11.81
2023-03-19T01:10:22.148Z,11.87
2023-03-19T01:15:24.367Z,11.88
2023-03-19T01:20:27.424Z,11.85
2023-03-19T01:25:29.112Z,11.79
2023-03-19T01:30:37.785Z,11.66
2023-03-19T01:35:55.435Z,11.39
2023-03-19T01:41:01.089Z,11.38
2023-03-19T01:46:04.898Z,11.25
2023-03-19T01:51:29.728Z,11.20
2023-03-19T01:56:51.569Z,11.01
2023-03-19T02:02:03.705Z,10.83
2023-03-19T02:07:07.605Z,10.67
2023-03-19T02:12:09.983Z,10.67
2023-03-19T02:17:11.737Z,10.70
2023-03-19T02:22:14.817Z,10.64
2023-03-19T02:27:18.518Z,10.63
2023-03-19T02:32:23.217Z,10.60
2023-03-19T02:37:26.545Z,10.55
2023-03-19T02:42:30.544Z,10.51
2023-03-19T02:47:32.236Z,10.32
2023-03-19T02:52:33.987Z,10.22
2023-03-19T02:57:37.008Z,10.12
2023-03-19T03:02:38.775Z,10.10
2023-03-19T03:07:41.375Z,10.14
2023-03-19T03:12:46.419Z,10.11
2023-03-19T03:17:48.124Z,10.08
2023-03-19T03:22:49.897Z,10.05
2023-03-19T03:27:53.293Z,10.00
2023-03-19T03:32:55.001Z,9.80
2023-03-19T03:37:57.905Z,9.66
2023-03-19T03:43:01.326Z,9.65
2023-03-19T03:48:04.502Z,9.74
2023-03-19T03:53:06.263Z,9.71
2023-03-19T03:58:09.393Z,9.65
2023-03-19T04:03:11.151Z,9.60
2023-03-19T04:08:13.227Z,9.40
2023-03-19T04:13:16.809Z,9.19
2023-03-19T04:18:18.825Z,9.14
2023-03-19T04:23:20.617Z,9.15
2023-03-19T04:28:24.468Z,9.12
2023-03-19T04:33:26.270Z,9.12
2023-03-19T04:38:28.529Z,9.12
2023-03-19T04:43:31.685Z,9.16
2023-03-19T04:48:35.687Z,9.19
2023-03-19T04:53:37.899Z,9.11
2023-03-19T04:58:41.196Z,9.08
2023-03-19T05:03:43.431Z,9.02
2023-03-19T05:08:45.810Z,9.05
2023-03-19T05:13:50.287Z,9.09
2023-03-19T05:18:52.556Z,9.04
2023-03-19T05:23:54.726Z,9.01
2023-03-19T05:28:58.337Z,9.00
2023-03-19T05:34:09.489Z,9.05
2023-03-19T05:39:11.915Z,8.78
2023-03-19T05:44:18.097Z,8.59
2023-03-19T05:49:31.368Z,8.49
2023-03-19T05:54:33.292Z,8.56
2023-03-19T05:59:43.216Z,8.58
2023-03-19T06:05:06.454Z,8.77
2023-03-19T06:10:09.413Z,8.94
2023-03-19T06:15:13.301Z,9.12
2023-03-19T06:20:39.492Z,9.25
2023-03-19T06:25:41.598Z,9.35
2023-03-19T06:30:44.801Z,9.49
2023-03-19T06:36:09.549Z,9.87
2023-03-19T06:41:11.649Z,10.03
2023-03-19T06:46:15.051Z,9.87
2023-03-19T06:51:16.770Z,9.78
2023-03-19T06:56:18.473Z,10.02
2023-03-19T07:01:22.020Z,10.25
2023-03-19T07:06:23.790Z,10.71
2023-03-19T07:11:25.543Z,11.45
2023-03-19T07:16:28.705Z,12.48
2023-03-19T07:21:30.392Z,12.85
2023-03-19T07:26:32.585Z,13.40
2023-03-19T07:31:35.846Z,14.17
2023-03-19T07:36:37.571Z,13.94
2023-03-19T07:41:39.319Z,14.62
2023-03-19T07:46:42.522Z,16.35
2023-03-19T07:51:44.291Z,19.60
2023-03-19T07:56:46.096Z,21.47
2023-03-19T08:01:49.179Z,18.68
2023-03-19T08:06:51.372Z,17.03
2023-03-19T08:11:53.149Z,15.98
2023-03-19T08:16:56.340Z,15.09
2023-03-19T08:21:58.057Z,14.51
2023-03-19T08:26:59.744Z,14.13
2023-03-19T08:32:03.267Z,13.93
2023-03-19T08:37:04.995Z,13.72
2023-03-19T08:42:06.906Z,13.60
2023-03-19T08:47:09.972Z,13.52
2023-03-19T08:52:11.794Z,13.37
2023-03-19T08:57:13.430Z,13.32
2023-03-19T09:02:16.431Z,13.19
2023-03-19T09:07:18.162Z,13.10
2023-03-19T09:12:19.856Z,12.96
2023-03-19T09:17:22.871Z,12.83
2023-03-19T09:22:24.543Z,12.65
2023-03-19T09:27:26.272Z,12.64
2023-03-19T09:32:29.743Z,12.48
2023-03-19T09:37:31.388Z,12.44
2023-03-19T09:42:45.162Z,12.48
2023-03-19T09:47:49.835Z,12.51
2023-03-19T09:52:54.378Z,12.68
2023-03-19T09:57:57.114Z,13.35
2023-03-19T10:03:03.889Z,15.96
2023-03-19T10:08:14.102Z,20.42
2023-03-19T10:13:21.863Z,25.23
2023-03-19T10:18:26.156Z,28.30
2023-03-19T10:23:37.732Z,31.16
2023-03-19T10:28:40.484Z,33.56
2023-03-19T10:33:46.474Z,33.71
2023-03-19T10:38:48.145Z,34.45
2023-03-19T10:43:52.813Z,30.94
2023-03-19T10:48:56.935Z,34.24
2023-03-19T10:54:00.098Z,33.01
2023-03-19T10:59:02.998Z,33.88
2023-03-19T11:04:14.547Z,34.27
2023-03-19T11:09:20.165Z,33.47
2023-03-19T11:14:24.472Z,31.47
2023-03-19T11:19:29.511Z,28.23
2023-03-19T11:24:34.445Z,25.90
2023-03-19T11:29:36.854Z,24.25
2023-03-19T11:34:43.851Z,23.59
2023-03-19T11:39:49.414Z,22.93
2023-03-19T11:44:55.995Z,22.60
2023-03-19T11:50:09.691Z,22.36
2023-03-19T11:55:17.311Z,22.00
2023-03-19T12:00:25.567Z,21.61
2023-03-19T12:05:31.754Z,21.48
2023-03-19T12:10:42.408Z,21.63
2023-03-19T12:15:47.195Z,21.30
2023-03-19T12:20:56.318Z,20.85
2023-03-19T12:26:04.517Z,20.10
2023-03-19T12:31:18.391Z,20.06
2023-03-19T12:36:23.523Z,19.88
2023-03-19T12:41:27.256Z,19.59
2023-03-19T12:46:31.961Z,19.33
2023-03-19T12:51:35.946Z,19.10
2023-03-19T12:56:39.392Z,18.83
2023-03-19T13:01:42.502Z,18.57
2023-03-19T13:06:48.709Z,18.45
2023-03-19T13:11:52.906Z,18.37
2023-03-19T13:16:57.693Z,18.28
2023-03-19T13:22:02.131Z,18.22
2023-03-19T13:27:04.035Z,18.24
2023-03-19T13:32:06.677Z,18.31
2023-03-19T13:37:12.472Z,18.35
2023-03-19T13:42:37.015Z,18.36
2023-03-19T13:47:43.349Z,18.17
2023-03-19T13:52:50.538Z,18.00
2023-03-19T13:58:01.748Z,17.82
2023-03-19T14:03:03.475Z,17.68
2023-03-19T14:08:14.884Z,17.52
2023-03-19T14:13:20.057Z,17.36
2023-03-19T14:18:22.148Z,17.28
2023-03-19T14:23:38.549Z,17.19
2023-03-19T14:28:49.650Z,17.17
2023-03-19T14:33:55.124Z,17.21
2023-03-19T14:38:59.145Z,17.39
2023-03-19T14:44:30.769Z,17.55
2023-03-19T14:49:52.058Z,17.74
2023-03-19T14:54:55.993Z,17.77
2023-03-19T14:59:57.743Z,17.66
2023-03-19T15:05:00.706Z,17.58
2023-03-19T15:10:06.638Z,17.60
2023-03-19T15:15:17.592Z,17.60
2023-03-19T15:20:20.474Z,17.54
2023-03-19T15:25:23.804Z,17.55
2023-03-19T15:30:28.865Z,17.47
2023-03-19T15:35:32.552Z,17.27
2023-03-19T15:40:36.931Z,17.21
2023-03-19T15:45:38.880Z,17.14
2023-03-19T15:50:41.585Z,17.03
2023-03-19T15:55:44.850Z,17.00
2023-03-19T16:00:47.273Z,16.95
2023-03-19T16:05:51.480Z,16.86
2023-03-19T16:10:55.201Z,16.82
2023-03-19T16:16:00.810Z,16.87
2023-03-19T16:21:06.472Z,17.01
2023-03-19T16:26:21.666Z,17.05
2023-03-19T16:31:24.794Z,17.02
2023-03-19T16:36:28.128Z,17.04
2023-03-19T16:41:34.174Z,16.99
2023-03-19T16:46:35.954Z,16.91
2023-03-19T16:51:38.223Z,16.77
2023-03-19T16:56:41.309Z,16.64
2023-03-19T17:01:43.076Z,16.51
2023-03-19T17:06:44.902Z,16.13
2023-03-19T17:11:48.005Z,15.81
2023-03-19T17:16:54.419Z,15.52
2023-03-19T17:21:57.430Z,15.25
2023-03-19T17:27:01.612Z,15.04
2023-03-19T17:32:04.152Z,14.84
2023-03-19T17:37:06.986Z,14.65
2023-03-19T17:42:16.559Z,14.68
2023-03-19T17:47:18.370Z,14.55
2023-03-19T17:52:21.119Z,14.47
2023-03-19T17:57:25.865Z,14.40
2023-03-19T18:02:28.524Z,14.30
2023-03-19T18:07:31.091Z,14.22
2023-03-19T18:12:34.114Z,14.23
2023-03-19T18:17:35.905Z,14.21
2023-03-19T18:22:37.644Z,14.17
2023-03-19T18:27:40.733Z,14.12
2023-03-19T18:32:45.574Z,14.11
2023-03-19T18:37:49.219Z,14.09
2023-03-19T18:42:52.235Z,14.11
2023-03-19T18:47:54.944Z,14.06
2023-03-19T18:52:57.090Z,13.94
2023-03-19T18:58:01.013Z,13.93
2023-03-19T19:03:03.766Z,13.78
2023-03-19T19:08:07.637Z,13.68
2023-03-19T19:13:13.365Z,13.65
2023-03-19T19:18:17.846Z,13.55
2023-03-19T19:23:20.301Z,13.55
2023-03-19T19:28:26.785Z,13.54
2023-03-19T19:33:31.613Z,13.52
2023-03-19T19:38:33.258Z,13.54
2023-03-19T19:43:36.299Z,13.58
2023-03-19T19:48:39.022Z,13.60
2023-03-19T19:53:41.135Z,13.58
2023-03-19T19:58:44.971Z,13.59
2023-03-19T20:03:47.330Z,13.55
2023-03-19T20:08:49.350Z,13.48
2023-03-19T20:13:54.490Z,13.47
2023-03-19T20:18:56.784Z,13.54
2023-03-19T20:23:59.572Z,13.53
2023-03-19T20:29:03.739Z,13.54
2023-03-19T20:34:05.585Z,13.53
2023-03-19T20:39:07.247Z,13.54
2023-03-19T20:44:11.456Z,13.55
2023-03-19T20:49:13.320Z,13.61
2023-03-19T20:54:15.015Z,13.60
2023-03-19T20:59:18.093Z,13.61
2023-03-19T21:04:20.886Z,13.62
2023-03-19T21:09:23.069Z,13.66
2023-03-19T21:14:27.315Z,13.67
2023-03-19T21:19:29.045Z,13.62
2023-03-19T21:24:31.169Z,13.59
2023-03-19T21:29:34.217Z,13.61
2023-03-19T21:34:36.069Z,13.60
2023-03-19T21:39:38.233Z,13.57
2023-03-19T21:44:41.341Z,13.58
2023-03-19T21:49:43.505Z,13.54
2023-03-19T21:54:45.188Z,13.44
2023-03-19T21:59:48.518Z,13.34
2023-03-19T22:04:50.177Z,13.25
2023-03-19T22:09:51.912Z,13.26
2023-03-19T22:14:54.989Z,13.23
2023-03-19T22:19:58.049Z,13.21
2023-03-19T22:25:00.328Z,13.18
2023-03-19T22:30:03.850Z,13.16
2023-03-19T22:35:06.226Z,13.10
2023-03-19T22:40:10.524Z,13.14
2023-03-19T22:45:20.859Z,13.04
2023-03-19T22:50:24.660Z,13.00
2023-03-19T22:55:26.322Z,13.01
2023-03-19T23:00:29.336Z,12.92
2023-03-19T23:05:33.192Z,12.91
2023-03-19T23:10:35.945Z,12.81
2023-03-19T23:15:40.284Z,12.69
2023-03-19T23:20:42.715Z,12.63
2023-03-19T23:25:44.708Z,12.54
2023-03-19T23:30:48.015Z,12.45
2023-03-19T23:35:49.775Z,12.34
2023-03-19T23:40:51.745Z,12.26
2023-03-19T23:45:55.216Z,12.24
2023-03-19T23:50:57.004Z,12.18
2023-03-19T23:55:59.540Z,12.10
